Time;durP1;ratioP1;P1;durP2;ratioP2;P2;SDS_P1;SDS_P2;PMS_P1;PMS_P2;Temp;Humidity;BMP_temperature;BMP_pressure;BME280_temperature;BME280_humidity;BME280_pressure;Samples;Min_cycle;Max_cycle;Signal;HPM_P1;HPM_P2
2022/04/19 00:00:04;;;;;;;;;;;9.50;59.20;;;;;;5057011;28;19970;-83
2022/04/19 00:02:30;;;;;;;;;;;9.40;59.40;;;;;;5050675;28;19917;-83
2022/04/19 00:04:58;;;;;;;;;;;9.40;60.20;;;;;;5054052;28;19924;-83
2022/04/19 00:07:24;;;;;;;;;;;9.20;60.60;;;;;;5051227;28;19913;-83
2022/04/19 00:09:49;;;;;;;;;;;9.20;60.80;;;;;;5050865;28;19925;-82
2022/04/19 00:12:15;;;;;;;;;;;9.20;60.70;;;;;;5049382;28;19912;-82
2022/04/19 00:14:40;;;;;;;;;;;9.10;60.70;;;;;;5052366;28;19936;-83
2022/04/19 00:17:06;;;;;;;;;;;9.30;60.50;;;;;;5058729;28;19935;-83
2022/04/19 00:19:31;;;;;;;;;;;9.10;61.20;;;;;;5070478;28;19916;-83
2022/04/19 00:21:56;;;;;;;;;;;9.10;61.00;;;;;;5062526;28;20414;-83
2022/04/19 00:24:22;;;;;;;;;;;9.00;61.10;;;;;;5060830;28;19935;-83
2022/04/19 00:26:47;;;;;;;;;;;9.10;61.30;;;;;;5064810;28;19990;-83
2022/04/19 00:29:13;;;;;;;;;;;9.00;61.70;;;;;;5060263;28;19913;-83
2022/04/19 00:31:38;;;;;;;;;;;9.00;61.70;;;;;;5061277;28;19913;-82
2022/04/19 00:34:03;;;;;;;;;;;8.90;61.80;;;;;;5060114;28;19919;-83
2022/04/19 00:36:29;;;;;;;;;;;8.90;61.90;;;;;;5061956;28;19920;-83
2022/04/19 00:38:54;;;;;;;;;;;8.90;62.60;;;;;;5059446;28;19917;-83
2022/04/19 00:41:20;;;;;;;;;;;8.90;63.10;;;;;;5057655;28;19913;-83
2022/04/19 00:43:45;;;;;;;;;;;8.80;63.40;;;;;;5056755;28;19936;-83
2022/04/19 00:46:11;;;;;;;;;;;8.80;63.00;;;;;;5053487;28;19912;-83
2022/04/19 00:48:36;;;;;;;;;;;8.70;62.80;;;;;;5053971;28;19995;-83
2022/04/19 00:51:02;;;;;;;;;;;8.70;63.20;;;;;;5053413;28;19913;-83
2022/04/19 00:53:29;;;;;;;;;;;8.60;63.30;;;;;;5056136;28;20320;-83
2022/04/19 00:55:55;;;;;;;;;;;8.60;63.40;;;;;;5051761;28;20371;-84
2022/04/19 00:58:21;;;;;;;;;;;8.60;63.30;;;;;;5049575;28;19912;-83
2022/04/19 01:00:50;;;;;;;;;;;8.50;63.20;;;;;;5059201;28;19999;-83
2022/04/19 01:03:15;;;;;;;;;;;8.60;63.10;;;;;;5050900;28;19964;-84
2022/04/19 01:05:43;;;;;;;;;;;8.50;63.00;;;;;;5054891;28;19944;-83
2022/04/19 01:08:08;;;;;;;;;;;8.50;63.30;;;;;;5055202;28;20272;-83
2022/04/19 01:10:34;;;;;;;;;;;8.60;64.30;;;;;;5056404;28;19931;-83
2022/04/19 01:13:18;;;;;;;;;;;8.50;64.30;;;;;;5047659;28;19917;-83
2022/04/19 01:15:47;;;;;;;;;;;8.50;64.10;;;;;;5046819;28;19921;-83
2022/04/19 01:18:14;;;;;;;;;;;8.50;64.80;;;;;;5046329;28;20271;-83
2022/04/19 01:20:39;;;;;;;;;;;8.50;64.60;;;;;;5044926;28;19952;-83
2022/04/19 01:23:05;;;;;;;;;;;8.30;64.20;;;;;;5045451;28;20002;-83
2022/04/19 01:25:30;;;;;;;;;;;8.30;64.30;;;;;;5049649;28;19933;-83
2022/04/19 01:27:56;;;;;;;;;;;8.40;64.10;;;;;;5050306;28;20024;-83
2022/04/19 01:30:21;;;;;;;;;;;8.40;64.40;;;;;;5051434;28;20279;-83
2022/04/19 01:32:47;;;;;;;;;;;8.20;64.10;;;;;;5050541;28;20371;-83
2022/04/19 01:35:19;;;;;;;;;;;8.30;64.40;;;;;;5053112;28;19966;-83
2022/04/19 01:37:48;;;;;;;;;;;8.20;64.50;;;;;;5063315;28;19917;-83
2022/04/19 01:40:17;;;;;;;;;;;8.10;64.60;;;;;;5053610;28;19917;-83
2022/04/19 01:42:49;;;;;;;;;;;8.20;64.50;;;;;;5048888;28;19920;-83
2022/04/19 01:45:15;;;;;;;;;;;8.30;64.60;;;;;;5048286;28;20377;-83
2022/04/19 01:47:41;;;;;;;;;;;8.30;64.60;;;;;;5054841;28;19931;-83
2022/04/19 01:50:09;;;;;;;;;;;8.30;65.00;;;;;;5045066;28;19913;-83
2022/04/19 01:52:35;;;;;;;;;;;8.30;65.30;;;;;;5054677;28;19931;-83
2022/04/19 01:55:01;;;;;;;;;;;8.10;65.10;;;;;;5052013;28;20038;-83
2022/04/19 01:57:26;;;;;;;;;;;8.20;65.50;;;;;;5052159;28;20374;-83
2022/04/19 01:59:53;;;;;;;;;;;8.30;65.70;;;;;;5053097;28;19920;-83
2022/04/19 02:02:18;;;;;;;;;;;8.40;65.70;;;;;;5058096;28;19916;-83
2022/04/19 02:04:44;;;;;;;;;;;8.40;65.40;;;;;;5079360;28;19916;-83
2022/04/19 02:07:09;;;;;;;;;;;8.50;65.10;;;;;;5057582;28;19913;-83
2022/04/19 02:09:35;;;;;;;;;;;8.40;64.80;;;;;;5065660;28;19913;-83
2022/04/19 02:12:00;;;;;;;;;;;8.30;65.50;;;;;;5055734;28;19948;-83
2022/04/19 02:14:26;;;;;;;;;;;8.20;66.00;;;;;;5058315;28;19923;-83
2022/04/19 02:16:55;;;;;;;;;;;8.20;66.00;;;;;;5056015;28;20298;-83
2022/04/19 02:19:21;;;;;;;;;;;8.10;66.30;;;;;;5056697;28;19917;-83
2022/04/19 02:21:46;;;;;;;;;;;7.90;66.80;;;;;;5054418;28;19967;-84
2022/04/19 02:24:12;;;;;;;;;;;7.70;67.40;;;;;;5055524;28;19944;-83
2022/04/19 02:26:37;;;;;;;;;;;7.80;67.70;;;;;;5055158;28;19971;-83
2022/04/19 02:29:03;;;;;;;;;;;7.70;67.90;;;;;;5053947;28;19925;-83
2022/04/19 02:31:29;;;;;;;;;;;7.60;68.30;;;;;;5058331;28;20021;-83
2022/04/19 02:33:56;;;;;;;;;;;7.60;68.30;;;;;;5055086;28;19925;-82
2022/04/19 02:36:21;;;;;;;;;;;7.60;68.60;;;;;;5055631;28;19919;-83
2022/04/19 02:38:46;;;;;;;;;;;7.50;68.40;;;;;;5055770;28;19999;-83
2022/04/19 02:41:12;;;;;;;;;;;7.50;68.40;;;;;;5054880;28;19912;-83
2022/04/19 02:43:38;;;;;;;;;;;7.50;68.10;;;;;;5053942;28;19939;-82
2022/04/19 02:46:04;;;;;;;;;;;7.60;68.40;;;;;;5052959;28;19991;-83
2022/04/19 02:48:30;;;;;;;;;;;7.60;68.20;;;;;;5054882;28;20244;-83
2022/04/19 02:50:56;;;;;;;;;;;7.70;67.60;;;;;;5053284;28;19913;-83
2022/04/19 02:53:21;;;;;;;;;;;7.60;67.50;;;;;;5048097;28;20020;-83
2022/04/19 02:55:48;;;;;;;;;;;7.60;66.90;;;;;;5052632;28;19913;-83
2022/04/19 02:58:13;;;;;;;;;;;7.60;66.70;;;;;;5050377;28;19928;-83
2022/04/19 03:00:39;;;;;;;;;;;7.60;67.10;;;;;;5022962;28;804769;-83
2022/04/19 03:03:05;;;;;;;;;;;7.60;66.80;;;;;;5048579;28;19912;-83
2022/04/19 03:05:30;;;;;;;;;;;7.50;66.70;;;;;;5059509;28;19948;-82
2022/04/19 03:07:56;;;;;;;;;;;7.60;66.40;;;;;;5052312;28;19916;-85
2022/04/19 03:10:21;;;;;;;;;;;7.80;66.60;;;;;;5050752;28;19971;-82
2022/04/19 03:12:47;;;;;;;;;;;7.60;66.50;;;;;;5046936;28;19959;-83
2022/04/19 03:15:13;;;;;;;;;;;7.50;67.40;;;;;;5051045;28;20061;-83
2022/04/19 03:17:38;;;;;;;;;;;7.40;68.10;;;;;;5049926;28;19961;-83
2022/04/19 03:20:07;;;;;;;;;;;7.40;67.80;;;;;;5052922;28;19924;-83
2022/04/19 03:28:03;;;;;;;;;;;7.30;68.00;;;;;;5068118;28;19935;-82
2022/04/19 03:30:29;;;;;;;;;;;7.20;67.90;;;;;;5066357;28;19963;-82
2022/04/19 03:32:54;;;;;;;;;;;7.30;67.70;;;;;;5068929;28;20174;-82
2022/04/19 03:35:20;;;;;;;;;;;7.40;67.70;;;;;;5060785;28;20428;-82
2022/04/19 03:37:46;;;;;;;;;;;7.50;67.40;;;;;;5063740;28;19913;-83
2022/04/19 03:40:11;;;;;;;;;;;7.60;67.60;;;;;;5063252;28;19916;-82
2022/04/19 03:42:40;;;;;;;;;;;7.60;67.80;;;;;;5056245;28;19999;-83
2022/04/19 03:45:06;;;;;;;;;;;7.50;67.50;;;;;;5059048;28;20359;-83
2022/04/19 03:47:34;;;;;;;;;;;7.60;67.80;;;;;;5059636;28;19991;-83
2022/04/19 03:50:00;;;;;;;;;;;7.50;67.80;;;;;;5058127;28;19923;-83
2022/04/19 03:52:26;;;;;;;;;;;7.40;68.10;;;;;;5054157;28;19913;-83
2022/04/19 03:54:52;;;;;;;;;;;7.30;68.90;;;;;;5057851;28;19916;-83
2022/04/19 03:57:18;;;;;;;;;;;7.20;69.30;;;;;;5054263;28;19917;-83
2022/04/19 03:59:43;;;;;;;;;;;7.10;69.70;;;;;;5050760;28;19920;-83
2022/04/19 04:02:09;;;;;;;;;;;7.10;69.00;;;;;;5054245;28;20386;-83
2022/04/19 04:04:36;;;;;;;;;;;7.10;69.20;;;;;;5055954;28;19921;-83
2022/04/19 04:07:06;;;;;;;;;;;7.10;69.50;;;;;;5056292;28;20414;-83
2022/04/19 04:09:32;;;;;;;;;;;7.10;69.30;;;;;;5054259;28;19912;-83
2022/04/19 04:12:02;;;;;;;;;;;7.10;69.80;;;;;;5056951;28;19974;-82
2022/04/19 04:14:28;;;;;;;;;;;7.10;70.20;;;;;;5064648;28;19927;-83
2022/04/19 04:16:53;;;;;;;;;;;7.00;70.40;;;;;;5077161;28;19912;-83
2022/04/19 04:19:18;;;;;;;;;;;6.90;70.60;;;;;;5058466;28;19917;-83
2022/04/19 04:21:44;;;;;;;;;;;7.00;70.60;;;;;;5057995;28;19983;-83
2022/04/19 04:24:09;;;;;;;;;;;7.00;70.50;;;;;;5057093;28;19978;-83
2022/04/19 04:26:35;;;;;;;;;;;7.00;70.70;;;;;;5059358;28;19913;-82
2022/04/19 04:29:00;;;;;;;;;;;6.90;70.50;;;;;;5058028;28;19913;-83
2022/04/19 04:31:26;;;;;;;;;;;7.00;70.70;;;;;;5056041;28;19917;-83
2022/04/19 04:33:51;;;;;;;;;;;6.90;70.60;;;;;;5056638;28;20379;-83
2022/04/19 04:36:19;;;;;;;;;;;6.90;70.80;;;;;;5060477;28;19920;-83
2022/04/19 04:38:45;;;;;;;;;;;6.80;70.90;;;;;;5061013;28;19921;-83
2022/04/19 04:41:10;;;;;;;;;;;6.80;71.20;;;;;;5055224;28;19916;-83
2022/04/19 04:43:35;;;;;;;;;;;6.80;71.40;;;;;;5048711;28;20151;-83
2022/04/19 04:51:43;;;;;;;;;;;6.90;71.00;;;;;;5041017;28;20012;-83
2022/04/19 04:54:09;;;;;;;;;;;7.00;70.80;;;;;;5053782;28;19960;-82
2022/04/19 04:56:34;;;;;;;;;;;6.90;71.10;;;;;;5053942;28;20303;-83
2022/04/19 04:59:00;;;;;;;;;;;6.90;71.30;;;;;;5053176;28;20398;-83
2022/04/19 05:01:25;;;;;;;;;;;7.00;71.00;;;;;;5052267;28;19996;-83
2022/04/19 05:03:51;;;;;;;;;;;7.20;70.60;;;;;;5055951;28;19962;-83
2022/04/19 05:06:16;;;;;;;;;;;7.40;69.70;;;;;;5058532;28;20379;-83
2022/04/19 05:08:42;;;;;;;;;;;7.60;69.60;;;;;;5059500;28;19943;-82
2022/04/19 05:11:07;;;;;;;;;;;7.60;69.60;;;;;;5061313;28;20343;-83
2022/04/19 05:13:33;;;;;;;;;;;7.40;69.60;;;;;;5059158;28;19920;-83
2022/04/19 05:15:58;;;;;;;;;;;7.40;70.00;;;;;;5068381;28;19970;-83
2022/04/19 05:18:24;;;;;;;;;;;7.30;70.70;;;;;;5060607;28;20128;-83
2022/04/19 05:20:50;;;;;;;;;;;7.40;70.40;;;;;;5062517;28;19917;-83
2022/04/19 05:23:15;;;;;;;;;;;7.60;69.70;;;;;;5064300;28;19916;-83
2022/04/19 05:25:40;;;;;;;;;;;7.60;69.80;;;;;;5061046;28;19912;-83
2022/04/19 05:28:06;;;;;;;;;;;7.60;69.70;;;;;;5058926;28;19913;-83
2022/04/19 05:30:31;;;;;;;;;;;7.70;69.00;;;;;;5058436;28;19919;-83
2022/04/19 05:32:57;;;;;;;;;;;7.60;68.60;;;;;;5052896;28;20007;-83
2022/04/19 05:35:22;;;;;;;;;;;7.70;68.70;;;;;;5051198;28;19921;-83
2022/04/19 05:37:48;;;;;;;;;;;7.90;68.20;;;;;;5066090;28;19913;-83
2022/04/19 05:40:14;;;;;;;;;;;7.80;67.30;;;;;;5058192;28;19936;-83
2022/04/19 05:42:39;;;;;;;;;;;8.00;68.10;;;;;;5052351;28;19967;-83
2022/04/19 05:45:05;;;;;;;;;;;8.20;67.70;;;;;;5059168;28;19917;-82
2022/04/19 05:47:31;;;;;;;;;;;8.30;67.00;;;;;;5055579;28;19967;-83
2022/04/19 05:49:56;;;;;;;;;;;8.50;65.70;;;;;;5055924;28;19912;-83
2022/04/19 05:52:22;;;;;;;;;;;8.60;65.70;;;;;;5056196;28;19960;-82
2022/04/19 05:54:47;;;;;;;;;;;8.80;65.40;;;;;;5052450;28;19974;-83
2022/04/19 05:57:13;;;;;;;;;;;9.40;64.60;;;;;;5051389;28;19920;-83
2022/04/19 05:59:38;;;;;;;;;;;10.30;62.70;;;;;;5047941;28;19923;-82
2022/04/19 06:04:54;;;;;;;;;;;10.60;60.50;;;;;;5049348;28;19972;-82
2022/04/19 06:07:20;;;;;;;;;;;10.10;62.20;;;;;;5052263;28;19967;-81
2022/04/19 06:09:46;;;;;;;;;;;9.60;63.60;;;;;;5054390;28;19913;-85
2022/04/19 06:12:11;;;;;;;;;;;9.40;64.40;;;;;;5050796;28;19924;-83
2022/04/19 06:14:37;;;;;;;;;;;9.30;63.70;;;;;;5067813;28;19940;-83
2022/04/19 06:17:03;;;;;;;;;;;9.30;65.50;;;;;;5066342;28;19913;-83
2022/04/19 06:19:28;;;;;;;;;;;9.20;65.10;;;;;;5067833;28;19956;-84
2022/04/19 06:21:55;;;;;;;;;;;9.10;65.60;;;;;;5075971;28;19929;-89
2022/04/19 06:24:20;;;;;;;;;;;9.00;64.60;;;;;;5073630;28;19913;-86
2022/04/19 06:26:46;;;;;;;;;;;9.00;64.60;;;;;;5066822;28;19982;-87
2022/04/19 06:29:11;;;;;;;;;;;9.10;64.10;;;;;;5074378;28;19920;-85
2022/04/19 06:31:38;;;;;;;;;;;9.10;63.70;;;;;;5062300;28;19948;-85
2022/04/19 06:34:03;;;;;;;;;;;9.20;64.30;;;;;;5054376;28;19913;-85
2022/04/19 06:36:28;;;;;;;;;;;9.20;63.50;;;;;;5057099;28;19938;-86
2022/04/19 06:38:54;;;;;;;;;;;9.30;63.70;;;;;;5055855;28;19917;-85
2022/04/19 06:41:20;;;;;;;;;;;9.30;63.70;;;;;;5069483;28;19924;-84
2022/04/19 06:43:45;;;;;;;;;;;9.40;64.20;;;;;;5054296;28;19941;-83
2022/04/19 06:46:13;;;;;;;;;;;9.50;63.60;;;;;;5053012;28;19967;-81
2022/04/19 06:48:38;;;;;;;;;;;9.50;62.10;;;;;;5059002;28;20397;-83
2022/04/19 06:51:04;;;;;;;;;;;9.60;63.70;;;;;;5051969;28;19921;-84
2022/04/19 06:53:30;;;;;;;;;;;9.60;62.30;;;;;;5051631;28;19920;-82
2022/04/19 06:55:56;;;;;;;;;;;9.80;60.80;;;;;;5051381;28;19916;-82
2022/04/19 06:58:21;;;;;;;;;;;9.80;61.80;;;;;;5063583;28;19913;-82
2022/04/19 07:00:46;;;;;;;;;;;9.90;62.50;;;;;;5065266;28;19939;-82
2022/04/19 07:03:12;;;;;;;;;;;10.00;60.80;;;;;;5052452;28;19917;-82
2022/04/19 07:05:37;;;;;;;;;;;10.10;62.60;;;;;;5052013;28;19913;-82
2022/04/19 07:08:04;;;;;;;;;;;10.10;60.10;;;;;;5053563;28;19913;-82
2022/04/19 07:10:30;;;;;;;;;;;10.20;59.50;;;;;;5050577;28;21665;-83
2022/04/19 07:12:56;;;;;;;;;;;10.30;60.00;;;;;;5048910;28;19924;-84
2022/04/19 07:15:21;;;;;;;;;;;10.30;60.80;;;;;;5044465;28;20252;-85
2022/04/19 07:17:47;;;;;;;;;;;10.30;58.40;;;;;;5046104;28;19913;-84
2022/04/19 07:28:25;;;;;;;;;;;10.70;59.60;;;;;;5048431;28;19982;-81
2022/04/19 07:30:51;;;;;;;;;;;10.70;59.40;;;;;;5042174;28;19916;-82
2022/04/19 07:33:16;;;;;;;;;;;10.80;58.00;;;;;;5065759;28;20026;-81
2022/04/19 07:35:45;;;;;;;;;;;10.90;58.50;;;;;;5060458;28;19927;-82
2022/04/19 07:38:11;;;;;;;;;;;11.00;58.30;;;;;;5054562;28;19924;-83
2022/04/19 07:40:37;;;;;;;;;;;11.00;55.70;;;;;;5052450;28;19917;-84
2022/04/19 07:43:02;;;;;;;;;;;11.10;57.10;;;;;;5060825;28;19918;-82
2022/04/19 07:45:28;;;;;;;;;;;11.20;58.60;;;;;;5059694;28;19921;-83
2022/04/19 07:47:54;;;;;;;;;;;11.30;57.80;;;;;;5051042;28;20416;-83
2022/04/19 07:50:19;;;;;;;;;;;11.30;56.40;;;;;;5050633;28;19912;-82
2022/04/19 07:52:45;;;;;;;;;;;11.60;55.60;;;;;;5052666;28;19916;-83
2022/04/19 07:55:10;;;;;;;;;;;11.60;56.70;;;;;;5053339;28;19913;-81
2022/04/19 07:57:36;;;;;;;;;;;11.70;56.30;;;;;;5056326;28;19913;-82
2022/04/19 08:00:02;;;;;;;;;;;11.80;54.00;;;;;;5055051;28;19960;-82
2022/04/19 08:02:30;;;;;;;;;;;11.80;54.10;;;;;;5051935;28;20448;-83
2022/04/19 08:04:56;;;;;;;;;;;11.80;53.20;;;;;;5051110;28;20011;-81
2022/04/19 08:07:21;;;;;;;;;;;12.00;56.10;;;;;;5044956;28;19987;-82
2022/04/19 08:09:47;;;;;;;;;;;12.10;55.00;;;;;;5043753;28;19913;-82
2022/04/19 08:12:12;;;;;;;;;;;12.30;54.10;;;;;;5050126;28;19975;-77
2022/04/19 08:14:41;;;;;;;;;;;12.40;52.90;;;;;;5048452;28;19913;-77
2022/04/19 08:17:07;;;;;;;;;;;12.50;52.30;;;;;;5043679;28;19987;-84
2022/04/19 08:19:32;;;;;;;;;;;12.60;52.70;;;;;;5048978;28;19917;-88
2022/04/19 08:21:58;;;;;;;;;;;12.70;51.70;;;;;;5046861;28;20007;-84
2022/04/19 08:24:23;;;;;;;;;;;12.80;48.90;;;;;;5044214;28;19921;-78
2022/04/19 08:26:49;;;;;;;;;;;12.90;49.40;;;;;;5051638;28;19921;-81
2022/04/19 08:29:14;;;;;;;;;;;13.10;50.10;;;;;;5041483;28;20010;-83
2022/04/19 08:31:40;;;;;;;;;;;13.10;49.20;;;;;;5048918;28;19913;-83
2022/04/19 08:34:05;;;;;;;;;;;13.10;49.40;;;;;;5049207;28;20005;-81
2022/04/19 08:36:31;;;;;;;;;;;13.10;47.60;;;;;;5040312;28;19921;-80
2022/04/19 08:38:56;;;;;;;;;;;13.30;48.10;;;;;;5048301;28;19916;-82
2022/04/19 08:41:22;;;;;;;;;;;13.30;46.40;;;;;;5051165;28;19925;-84
2022/04/19 08:43:50;;;;;;;;;;;13.30;48.00;;;;;;5054757;28;20341;-84
2022/04/19 08:46:17;;;;;;;;;;;13.30;48.10;;;;;;5056028;28;19913;-83
2022/04/19 08:48:43;;;;;;;;;;;13.40;50.50;;;;;;5045724;28;19913;-86
2022/04/19 08:51:10;;;;;;;;;;;13.50;49.60;;;;;;5053800;28;20418;-85
2022/04/19 08:59:05;;;;;;;;;;;13.60;49.20;;;;;;5057542;28;19931;-85
2022/04/19 09:01:30;;;;;;;;;;;13.80;49.80;;;;;;5046902;28;19928;-81
2022/04/19 09:03:56;;;;;;;;;;;13.80;48.80;;;;;;5049882;28;19966;-85
2022/04/19 09:06:41;;;;;;;;;;;13.90;49.50;;;;;;5049437;28;19920;-84
2022/04/19 09:09:09;;;;;;;;;;;14.00;49.10;;;;;;5053557;28;19913;-86
2022/04/19 09:11:35;;;;;;;;;;;14.10;48.90;;;;;;5050242;28;19920;-84
2022/04/19 09:14:07;;;;;;;;;;;14.10;48.90;;;;;;5056353;28;19927;-85
2022/04/19 09:16:32;;;;;;;;;;;14.10;48.60;;;;;;5073520;28;19913;-85
2022/04/19 09:18:58;;;;;;;;;;;14.20;48.60;;;;;;5071022;28;20004;-84
2022/04/19 09:21:37;;;;;;;;;;;14.30;46.60;;;;;;5068052;28;19990;-82
2022/04/19 09:24:15;;;;;;;;;;;14.40;49.40;;;;;;5055129;28;19921;-84
2022/04/19 09:26:50;;;;;;;;;;;14.60;47.20;;;;;;5056409;28;20374;-80
2022/04/19 09:29:20;;;;;;;;;;;14.80;49.20;;;;;;5050064;28;19919;-84
2022/04/19 09:31:46;;;;;;;;;;;14.80;47.90;;;;;;5065103;28;19916;-84
2022/04/19 09:34:22;;;;;;;;;;;14.80;48.20;;;;;;5057371;28;19928;-82
2022/04/19 09:36:51;;;;;;;;;;;14.90;44.30;;;;;;5056798;28;19909;-83
2022/04/19 09:39:26;;;;;;;;;;;14.80;45.40;;;;;;5059287;28;19920;-84
2022/04/19 09:42:05;;;;;;;;;;;14.80;43.80;;;;;;5057061;28;19909;-83
2022/04/19 09:44:36;;;;;;;;;;;14.80;44.10;;;;;;5058183;28;19909;-83
2022/04/19 09:47:05;;;;;;;;;;;14.80;45.40;;;;;;5060866;28;19936;-83
2022/04/19 09:49:44;;;;;;;;;;;14.80;45.10;;;;;;5059530;28;19998;-84
2022/04/19 09:52:14;;;;;;;;;;;14.80;45.00;;;;;;5062611;28;19931;-84
2022/04/19 09:54:44;;;;;;;;;;;14.90;43.80;;;;;;5063783;28;19985;-83
2022/04/19 09:57:10;;;;;;;;;;;14.80;43.50;;;;;;5063367;28;19970;-83
2022/04/19 09:59:42;;;;;;;;;;;14.80;43.90;;;;;;5063326;28;19927;-83
2022/04/19 10:10:24;;;;;;;;;;;15.10;46.80;;;;;;5040382;28;20004;-83
2022/04/19 10:12:53;;;;;;;;;;;15.20;46.00;;;;;;5055313;28;19928;-83
2022/04/19 10:15:19;;;;;;;;;;;15.30;48.80;;;;;;5040534;28;20338;-84
2022/04/19 10:17:45;;;;;;;;;;;15.30;49.40;;;;;;5047558;28;19927;-84
2022/04/19 10:20:11;;;;;;;;;;;15.40;49.50;;;;;;5060569;28;19917;-83
2022/04/19 10:22:43;;;;;;;;;;;15.50;45.40;;;;;;5057432;28;19915;-83
2022/04/19 10:25:13;;;;;;;;;;;15.50;48.90;;;;;;5055660;28;19936;-84
2022/04/19 10:27:38;;;;;;;;;;;15.60;48.70;;;;;;5055880;28;19913;-83
2022/04/19 10:30:04;;;;;;;;;;;15.70;49.60;;;;;;5056802;28;19924;-83
2022/04/19 10:32:33;;;;;;;;;;;15.70;46.20;;;;;;5055961;28;19913;-84
2022/04/19 10:35:03;;;;;;;;;;;15.60;46.80;;;;;;5051146;28;19948;-83
2022/04/19 10:37:32;;;;;;;;;;;15.60;47.30;;;;;;5053853;28;19928;-83
2022/04/19 10:39:57;;;;;;;;;;;15.70;47.10;;;;;;5053829;28;20016;-84
2022/04/19 10:42:33;;;;;;;;;;;15.80;46.70;;;;;;5051735;28;19924;-84
2022/04/19 10:45:14;;;;;;;;;;;15.70;47.10;;;;;;5054389;28;19917;-83
2022/04/19 10:47:51;;;;;;;;;;;15.80;47.40;;;;;;5053036;28;19917;-84
2022/04/19 10:50:28;;;;;;;;;;;15.90;46.40;;;;;;5053948;28;19958;-84
2022/04/19 10:53:03;;;;;;;;;;;15.90;48.30;;;;;;5053333;28;19991;-84
2022/04/19 10:55:32;;;;;;;;;;;15.80;45.60;;;;;;5054473;28;19912;-84
2022/04/19 10:58:08;;;;;;;;;;;15.90;45.80;;;;;;5053955;28;19913;-84
2022/04/19 11:00:36;;;;;;;;;;;16.00;45.30;;;;;;5044549;28;20308;-84
2022/04/19 11:03:02;;;;;;;;;;;16.00;47.90;;;;;;5054006;28;20382;-84
2022/04/19 11:05:47;;;;;;;;;;;16.10;47.70;;;;;;5053940;28;19908;-84
2022/04/19 11:08:25;;;;;;;;;;;16.10;47.80;;;;;;5039597;28;19919;-81
2022/04/19 11:10:50;;;;;;;;;;;16.30;47.60;;;;;;5053092;28;19920;-83
2022/04/19 11:13:15;;;;;;;;;;;16.40;45.80;;;;;;5052480;28;20294;-82
2022/04/19 11:15:42;;;;;;;;;;;16.40;46.90;;;;;;5051699;28;19912;-82
2022/04/19 11:18:27;;;;;;;;;;;16.40;46.00;;;;;;5052042;28;19999;-82
2022/04/19 11:20:57;;;;;;;;;;;16.30;48.60;;;;;;5053485;28;20432;-82
2022/04/19 11:23:24;;;;;;;;;;;16.30;45.00;;;;;;5051596;28;20356;-84
2022/04/19 11:25:51;;;;;;;;;;;16.30;48.30;;;;;;5034701;28;19909;-83
2022/04/19 11:28:27;;;;;;;;;;;16.20;47.30;;;;;;5031982;28;19915;-84
2022/04/19 11:30:55;;;;;;;;;;;16.20;45.20;;;;;;5045660;28;19917;-83
2022/04/19 11:33:22;;;;;;;;;;;16.20;47.70;;;;;;5058932;28;19908;-83
2022/04/19 11:36:00;;;;;;;;;;;16.30;43.90;;;;;;5072131;28;19960;-84
2022/04/19 11:38:26;;;;;;;;;;;16.40;46.30;;;;;;5054548;28;19912;-83
2022/04/19 11:49:05;;;;;;;;;;;16.60;47.30;;;;;;5049746;28;19927;-83
2022/04/19 11:51:35;;;;;;;;;;;16.70;46.40;;;;;;5050832;28;19917;-83
2022/04/19 11:54:00;;;;;;;;;;;16.70;44.90;;;;;;5042961;28;20058;-82
2022/04/19 11:56:26;;;;;;;;;;;16.60;46.00;;;;;;5054694;28;20351;-82
2022/04/19 11:58:52;;;;;;;;;;;16.70;47.20;;;;;;5050232;28;20124;-83
2022/04/19 12:01:18;;;;;;;;;;;16.70;44.20;;;;;;5051907;28;19923;-82
2022/04/19 12:03:44;;;;;;;;;;;16.70;45.80;;;;;;5051556;28;20294;-83
2022/04/19 12:06:10;;;;;;;;;;;16.60;44.80;;;;;;5052586;28;20023;-83
2022/04/19 12:08:37;;;;;;;;;;;16.50;43.80;;;;;;5050159;28;20014;-82
2022/04/19 12:11:04;;;;;;;;;;;16.60;44.00;;;;;;5056990;28;19913;-82
2022/04/19 12:13:30;;;;;;;;;;;16.60;43.60;;;;;;5050549;28;19977;-83
2022/04/19 12:15:55;;;;;;;;;;;16.50;45.50;;;;;;5049850;28;19937;-83
2022/04/19 12:18:31;;;;;;;;;;;16.50;44.40;;;;;;5047454;28;20379;-82
2022/04/19 12:20:56;;;;;;;;;;;16.60;49.10;;;;;;5039569;28;19935;-83
2022/04/19 12:23:22;;;;;;;;;;;16.60;46.90;;;;;;5053042;28;19913;-82
2022/04/19 12:26:00;;;;;;;;;;;16.70;44.70;;;;;;5049093;28;19916;-82
2022/04/19 12:28:42;;;;;;;;;;;16.70;45.20;;;;;;5066808;28;20003;-84
2022/04/19 12:31:07;;;;;;;;;;;16.70;44.00;;;;;;5050811;28;19917;-83
2022/04/19 12:33:34;;;;;;;;;;;16.60;43.90;;;;;;5050989;28;19985;-83
2022/04/19 12:36:00;;;;;;;;;;;16.80;45.10;;;;;;5049697;28;19913;-83
2022/04/19 12:38:30;;;;;;;;;;;16.90;45.70;;;;;;5053016;28;20302;-83
2022/04/19 12:40:55;;;;;;;;;;;16.90;45.40;;;;;;5051958;28;19990;-83
2022/04/19 12:43:40;;;;;;;;;;;16.90;43.80;;;;;;5053147;28;19913;-83
2022/04/19 12:46:06;;;;;;;;;;;16.80;44.80;;;;;;5047509;28;19920;-82
2022/04/19 12:48:31;;;;;;;;;;;16.70;43.70;;;;;;5045005;28;19913;-80
2022/04/19 12:51:01;;;;;;;;;;;16.80;45.30;;;;;;5069058;22;20027;-79
2022/04/19 12:53:26;;;;;;;;;;;16.70;44.40;;;;;;5047927;28;19917;-79
2022/04/19 12:55:52;;;;;;;;;;;16.70;43.50;;;;;;5056351;28;19916;-80
2022/04/19 12:58:17;;;;;;;;;;;16.80;44.90;;;;;;5046873;28;19909;-79
2022/04/19 13:00:43;;;;;;;;;;;16.90;43.20;;;;;;5036066;28;19921;-79
2022/04/19 13:03:08;;;;;;;;;;;16.80;45.70;;;;;;5047937;28;20584;-80
2022/04/19 13:13:47;;;;;;;;;;;16.70;43.60;;;;;;5026477;28;19977;-81
2022/04/19 13:16:18;;;;;;;;;;;16.80;45.60;;;;;;5049683;28;19909;-78
2022/04/19 13:18:44;;;;;;;;;;;16.80;45.20;;;;;;5018980;28;20008;-80
2022/04/19 13:21:10;;;;;;;;;;;16.80;41.00;;;;;;5023684;28;19953;-80
2022/04/19 13:23:46;;;;;;;;;;;16.70;42.90;;;;;;5017622;28;19984;-80
2022/04/19 13:26:12;;;;;;;;;;;16.80;44.20;;;;;;5032373;28;19913;-79
2022/04/19 13:28:41;;;;;;;;;;;16.60;45.30;;;;;;5031061;28;20251;-82
2022/04/19 13:31:07;;;;;;;;;;;16.70;44.60;;;;;;5025447;28;19911;-81
2022/04/19 13:33:32;;;;;;;;;;;16.70;43.80;;;;;;5039381;28;19909;-81
2022/04/19 13:35:59;;;;;;;;;;;16.70;44.30;;;;;;5018782;28;19976;-80
2022/04/19 13:38:24;;;;;;;;;;;16.80;42.90;;;;;;5032437;28;20358;-81
2022/04/19 13:40:57;;;;;;;;;;;16.80;43.40;;;;;;5036528;28;20037;-81
2022/04/19 13:43:23;;;;;;;;;;;16.80;43.20;;;;;;5039203;28;19909;-82
2022/04/19 13:45:48;;;;;;;;;;;16.90;43.90;;;;;;5027147;28;19909;-82
2022/04/19 13:48:14;;;;;;;;;;;16.90;44.90;;;;;;5018925;28;20004;-82
2022/04/19 13:50:39;;;;;;;;;;;17.00;44.00;;;;;;5017083;28;19979;-82
2022/04/19 13:53:05;;;;;;;;;;;17.10;42.50;;;;;;5016339;28;19948;-82
2022/04/19 13:55:31;;;;;;;;;;;17.10;41.10;;;;;;5036761;28;19909;-81
2022/04/19 13:57:57;;;;;;;;;;;17.00;43.40;;;;;;5042120;28;19913;-82
2022/04/19 14:00:23;;;;;;;;;;;17.00;42.90;;;;;;5030783;28;19913;-80
2022/04/19 14:02:48;;;;;;;;;;;17.00;44.80;;;;;;5014634;28;19957;-80
2022/04/19 14:05:14;;;;;;;;;;;17.10;44.30;;;;;;5021224;28;19938;-79
2022/04/19 14:07:40;;;;;;;;;;;17.10;43.80;;;;;;5031624;28;19913;-81
2022/04/19 14:10:06;;;;;;;;;;;17.00;44.00;;;;;;5033751;28;19970;-79
2022/04/19 14:12:32;;;;;;;;;;;17.10;42.10;;;;;;5033190;28;19928;-80
2022/04/19 14:14:58;;;;;;;;;;;17.10;44.20;;;;;;5015901;28;20385;-81
2022/04/19 14:17:24;;;;;;;;;;;17.10;44.50;;;;;;5016312;28;20008;-82
2022/04/19 14:19:52;;;;;;;;;;;17.10;44.80;;;;;;5017127;28;19939;-81
2022/04/19 14:22:18;;;;;;;;;;;17.10;47.30;;;;;;5015477;28;20371;-80
2022/04/19 14:24:43;;;;;;;;;;;17.10;44.00;;;;;;5016334;28;19922;-79
2022/04/19 14:27:12;;;;;;;;;;;17.00;44.60;;;;;;5016818;28;19952;-80
2022/04/19 14:35:07;;;;;;;;;;;17.10;44.10;;;;;;5032347;28;20246;-82
2022/04/19 14:37:34;;;;;;;;;;;17.10;44.10;;;;;;5024968;28;19913;-79
2022/04/19 14:40:00;;;;;;;;;;;17.00;42.40;;;;;;5029391;28;20282;-81
2022/04/19 14:42:26;;;;;;;;;;;17.00;41.40;;;;;;5016317;28;19909;-78
2022/04/19 14:44:51;;;;;;;;;;;17.10;44.40;;;;;;5016969;28;19920;-79
2022/04/19 14:47:19;;;;;;;;;;;17.00;42.80;;;;;;5016607;28;19910;-79
2022/04/19 14:49:45;;;;;;;;;;;17.00;42.10;;;;;;5025816;28;19913;-80
2022/04/19 14:52:18;;;;;;;;;;;17.10;43.40;;;;;;5019670;28;19962;-78
2022/04/19 14:54:44;;;;;;;;;;;17.10;41.20;;;;;;5014991;28;19967;-78
2022/04/19 14:57:11;;;;;;;;;;;17.10;41.50;;;;;;5022284;28;19916;-82
2022/04/19 14:59:36;;;;;;;;;;;17.10;39.40;;;;;;5029990;28;19917;-80
2022/04/19 15:02:04;;;;;;;;;;;17.10;39.60;;;;;;5035344;28;20053;-79
2022/04/19 15:04:30;;;;;;;;;;;17.10;38.20;;;;;;5035077;28;19948;-78
2022/04/19 15:06:55;;;;;;;;;;;16.90;37.20;;;;;;5029952;28;20007;-79
2022/04/19 15:09:21;;;;;;;;;;;16.80;38.50;;;;;;5030347;28;19955;-80
2022/04/19 15:11:47;;;;;;;;;;;16.80;39.80;;;;;;5034406;28;19972;-80
2022/04/19 15:14:12;;;;;;;;;;;16.90;38.30;;;;;;5034774;28;19909;-80
2022/04/19 15:16:38;;;;;;;;;;;16.90;37.30;;;;;;5033956;28;19909;-80
2022/04/19 15:19:04;;;;;;;;;;;17.00;37.10;;;;;;5034353;28;19989;-78